createdAt,value
2023-02-11T00:01:35.921Z,209.82
2023-02-11T00:04:06.210Z,204.30
2023-02-11T00:06:36.225Z,197.88
2023-02-11T00:09:04.868Z,230.30
2023-02-11T00:11:33.181Z,211.75
2023-02-11T00:14:06.877Z,191.25
2023-02-11T00:16:35.371Z,204.68
2023-02-11T00:19:04.435Z,213.20
2023-02-11T00:21:33.452Z,234.25
2023-02-11T00:24:02.110Z,209.43
2023-02-11T00:26:34.100Z,176.00
2023-02-11T00:29:03.304Z,180.50
2023-02-11T00:31:33.131Z,192.82
2023-02-11T00:34:01.471Z,207.52
2023-02-11T00:36:30.648Z,206.55
2023-02-11T00:38:59.808Z,231.40
2023-02-11T00:41:29.238Z,198.57
2023-02-11T00:44:01.347Z,194.70
2023-02-11T00:46:30.257Z,145.63
2023-02-11T00:48:58.425Z,161.52
2023-02-11T00:51:30.079Z,128.70
2023-02-11T00:53:58.430Z,170.48
2023-02-11T00:56:26.968Z,151.25
2023-02-11T00:58:57.314Z,149.05
2023-02-11T01:01:26.001Z,103.15
2023-02-11T01:03:56.079Z,113.65
2023-02-11T01:06:24.681Z,110.70
2023-02-11T01:08:53.097Z,92.57
2023-02-11T01:11:22.131Z,90.78
2023-02-11T01:13:50.942Z,94.63
2023-02-11T01:16:20.377Z,88.93
2023-02-11T01:18:48.834Z,78.78
2023-02-11T01:21:19.041Z,86.57
2023-02-11T01:23:47.455Z,91.43
2023-02-11T01:26:15.683Z,76.85
2023-02-11T01:28:45.630Z,90.85
2023-02-11T01:31:15.807Z,91.35
2023-02-11T01:33:44.054Z,82.55
2023-02-11T01:36:13.017Z,80.40
2023-02-11T01:38:41.474Z,76.68
2023-02-11T01:41:12.491Z,65.00
2023-02-11T01:43:44.707Z,76.25
2023-02-11T01:46:34.516Z,69.78
2023-02-11T01:49:10.200Z,66.28
2023-02-11T01:51:45.752Z,64.55
2023-02-11T01:54:19.896Z,43.78
2023-02-11T01:56:53.261Z,73.38
2023-02-11T01:59:32.760Z,58.63
2023-02-11T02:02:07.091Z,74.90
2023-02-11T02:04:47.264Z,59.97
2023-02-11T02:07:27.276Z,61.53
2023-02-11T02:10:01.737Z,80.30
2023-02-11T02:12:30.068Z,71.38
2023-02-11T02:15:22.835Z,67.75
2023-02-11T02:18:23.384Z,69.80
2023-02-11T02:21:13.145Z,73.53
2023-02-11T02:23:53.040Z,60.03
2023-02-11T02:26:37.028Z,83.80
2023-02-11T02:29:46.907Z,58.42
2023-02-11T02:32:30.435Z,58.42
2023-02-11T02:35:20.084Z,58.38
2023-02-11T02:38:16.711Z,58.63
2023-02-11T02:40:59.693Z,89.32
2023-02-11T02:43:29.506Z,70.97
2023-02-11T02:46:11.749Z,75.15
2023-02-11T02:48:40.074Z,56.42
2023-02-11T02:51:35.724Z,73.18
2023-02-11T02:54:31.374Z,64.13
2023-02-11T03:01:24.110Z,63.42
2023-02-11T03:04:07.425Z,71.35
2023-02-11T03:06:49.008Z,61.85
2023-02-11T03:09:20.764Z,76.43
2023-02-11T03:11:49.496Z,53.45
2023-02-11T03:14:19.555Z,72.25
2023-02-11T03:16:50.833Z,67.25
2023-02-11T03:19:23.350Z,62.88
2023-02-11T03:21:54.115Z,71.70
2023-02-11T03:24:31.585Z,61.00
2023-02-11T03:27:29.291Z,38.85
2023-02-11T03:30:13.778Z,55.88
2023-02-11T03:33:03.796Z,56.42
2023-02-11T03:35:48.532Z,55.03
2023-02-11T03:38:25.745Z,62.47
2023-02-11T03:40:56.673Z,53.63
2023-02-11T03:43:56.595Z,59.38
2023-02-11T03:46:39.560Z,60.83
2023-02-11T03:49:13.917Z,49.90
2023-02-11T03:51:42.420Z,60.75
2023-02-11T03:54:14.870Z,42.05
2023-02-11T03:56:58.532Z,50.97
2023-02-11T03:59:26.884Z,31.35
2023-02-11T04:01:55.452Z,50.50
2023-02-11T04:04:23.776Z,51.28
2023-02-11T04:06:51.970Z,37.50
2023-02-11T04:09:20.213Z,45.35
2023-02-11T04:11:48.520Z,42.97
2023-02-11T04:14:16.754Z,38.70
2023-02-11T04:16:44.906Z,39.30
2023-02-11T04:19:13.227Z,40.95
2023-02-11T04:21:41.396Z,38.72
2023-02-11T04:24:09.547Z,48.08
2023-02-11T04:26:37.984Z,43.35
2023-02-11T04:29:06.076Z,58.65
2023-02-11T04:31:34.418Z,48.50
2023-02-11T04:34:02.817Z,46.08
2023-02-11T04:36:31.095Z,40.83
2023-02-11T04:38:59.273Z,38.50
2023-02-11T04:41:27.672Z,49.50
2023-02-11T04:43:55.873Z,49.95
2023-02-11T04:46:24.223Z,44.67
2023-02-11T04:48:52.539Z,46.47
2023-02-11T04:51:20.755Z,41.35
2023-02-11T04:53:48.878Z,50.38
2023-02-11T04:56:17.159Z,44.33
2023-02-11T04:58:45.549Z,46.78
2023-02-11T05:01:16.093Z,43.17
2023-02-11T05:03:44.613Z,37.58
2023-02-11T05:06:12.762Z,34.97
2023-02-11T05:08:41.174Z,47.50
2023-02-11T05:11:14.944Z,51.03
2023-02-11T05:13:43.297Z,36.40
2023-02-11T05:16:12.006Z,42.47
2023-02-11T05:18:41.786Z,36.13
2023-02-11T05:21:12.012Z,45.88
2023-02-11T05:23:41.491Z,29.48
2023-02-11T05:26:10.583Z,35.65
2023-02-11T05:28:38.961Z,33.33
2023-02-11T05:31:07.782Z,37.75
2023-02-11T05:33:36.388Z,36.85
2023-02-11T05:36:08.032Z,39.90
2023-02-11T05:38:37.465Z,35.35
2023-02-11T05:41:06.940Z,60.30
2023-02-11T05:43:35.509Z,58.88
2023-02-11T05:46:05.243Z,45.20
2023-02-11T05:48:33.573Z,46.97
2023-02-11T05:51:01.667Z,46.92
2023-02-11T05:53:29.965Z,44.10
2023-02-11T05:55:58.065Z,60.42
2023-02-11T05:58:26.565Z,42.05
2023-02-11T06:00:54.960Z,50.83
2023-02-11T06:03:23.316Z,40.05
2023-02-11T06:05:51.898Z,69.65
2023-02-11T06:08:20.379Z,65.18
2023-02-11T06:10:48.610Z,44.15
2023-02-11T06:13:16.792Z,52.65
2023-02-11T06:15:45.141Z,47.65
2023-02-11T06:18:13.557Z,41.17
2023-02-11T06:20:41.767Z,48.85
2023-02-11T06:23:09.891Z,43.38
2023-02-11T06:25:38.165Z,41.55
2023-02-11T06:28:06.385Z,66.65
2023-02-11T06:30:34.720Z,40.22
2023-02-11T06:33:03.050Z,40.05
2023-02-11T06:35:31.385Z,49.78
2023-02-11T06:37:59.859Z,45.13
2023-02-11T06:40:28.159Z,47.00
2023-02-11T06:42:56.409Z,37.38
2023-02-11T06:45:24.684Z,52.28
2023-02-11T06:47:53.048Z,54.92
2023-02-11T06:50:21.457Z,49.28
2023-02-11T06:52:49.586Z,57.78
2023-02-11T06:55:17.789Z,55.20
2023-02-11T06:57:46.119Z,64.03
2023-02-11T07:00:14.932Z,61.03
2023-02-11T07:02:43.064Z,63.65
2023-02-11T07:05:11.964Z,54.33
2023-02-11T07:07:40.145Z,60.72
2023-02-11T07:11:47.784Z,64.55
2023-02-11T07:14:16.051Z,51.13
2023-02-11T07:16:44.343Z,53.10
2023-02-11T07:19:12.551Z,68.07
2023-02-11T07:21:40.694Z,40.05
2023-02-11T07:24:11.204Z,55.22
2023-02-11T07:26:39.704Z,57.42
2023-02-11T07:29:07.824Z,46.80
2023-02-11T07:31:36.268Z,56.13
2023-02-11T07:34:04.793Z,68.18
2023-02-11T07:36:33.320Z,55.13
2023-02-11T07:39:01.605Z,64.15
2023-02-11T07:41:30.107Z,70.13
2023-02-11T07:43:58.295Z,51.83
2023-02-11T07:46:28.987Z,74.60
2023-02-11T07:49:00.020Z,54.67
2023-02-11T07:51:30.146Z,75.47
2023-02-11T07:54:00.527Z,73.18
2023-02-11T07:56:30.019Z,62.33
2023-02-11T07:59:02.366Z,54.33
2023-02-11T08:01:31.223Z,60.05
2023-02-11T08:04:01.337Z,77.68
2023-02-11T08:06:31.988Z,57.25
2023-02-11T08:09:09.130Z,62.75
2023-02-11T08:11:37.628Z,42.28
2023-02-11T08:14:06.111Z,50.58
2023-02-11T08:16:38.588Z,58.65
2023-02-11T08:19:13.170Z,51.28
2023-02-11T08:21:42.320Z,54.80
2023-02-11T08:24:11.016Z,66.05
2023-02-11T08:26:39.313Z,77.82
2023-02-11T08:29:11.998Z,54.17
2023-02-11T08:31:43.250Z,55.85
2023-02-11T08:34:12.574Z,73.38
2023-02-11T08:36:41.986Z,95.20
2023-02-11T08:39:20.075Z,63.45
2023-02-11T08:41:50.816Z,53.75
2023-02-11T08:44:20.795Z,50.67
2023-02-11T08:46:49.927Z,79.07
2023-02-11T08:49:18.236Z,53.20
2023-02-11T08:51:47.457Z,33.50
2023-02-11T08:54:16.345Z,52.80
2023-02-11T08:56:44.632Z,56.88
2023-02-11T08:59:15.697Z,60.47
2023-02-11T09:01:44.729Z,72.25
2023-02-11T09:04:13.426Z,48.45
2023-02-11T09:06:42.053Z,55.50
2023-02-11T09:09:13.700Z,52.30
2023-02-11T09:11:43.897Z,63.08
2023-02-11T09:14:21.332Z,64.43
2023-02-11T09:18:37.753Z,55.00
2023-02-11T09:21:07.927Z,52.35
2023-02-11T09:23:36.861Z,52.30
2023-02-11T09:26:14.122Z,50.85
2023-02-11T09:28:42.453Z,59.83
2023-02-11T09:31:13.726Z,57.72
2023-02-11T09:36:10.745Z,49.10
2023-02-11T09:38:38.925Z,57.38
2023-02-11T09:41:07.221Z,57.13
2023-02-11T09:43:45.524Z,66.70
2023-02-11T09:46:18.064Z,64.75
2023-02-11T09:48:48.417Z,56.05
2023-02-11T09:51:32.448Z,47.47
2023-02-11T09:54:05.948Z,46.67
2023-02-11T10:00:43.709Z,66.10
2023-02-11T10:03:20.980Z,50.42
2023-02-11T10:06:18.970Z,38.78
2023-02-11T10:09:02.560Z,46.53
2023-02-11T10:11:55.292Z,52.70
2023-02-11T10:14:58.523Z,51.33
2023-02-11T10:17:35.828Z,53.83
2023-02-11T10:20:22.639Z,46.10
2023-02-11T10:23:01.897Z,49.42
2023-02-11T10:25:39.832Z,42.72
2023-02-11T10:28:23.728Z,41.03
2023-02-11T10:31:07.059Z,43.55
2023-02-11T10:33:53.268Z,33.00
2023-02-11T10:36:27.040Z,49.85
2023-02-11T10:38:55.167Z,42.15
2023-02-11T10:41:34.517Z,44.92
2023-02-11T10:44:02.862Z,45.30
2023-02-11T10:46:35.460Z,32.20
2023-02-11T10:49:03.907Z,31.33
2023-02-11T10:51:34.043Z,36.03
2023-02-11T10:54:05.091Z,40.78
2023-02-11T10:56:36.959Z,34.65
2023-02-11T10:59:36.188Z,41.58
2023-02-11T11:02:28.305Z,31.75
2023-02-11T11:05:07.486Z,24.90
2023-02-11T11:07:37.129Z,28.75
2023-02-11T11:10:26.674Z,30.60
2023-02-11T11:12:55.066Z,31.42
2023-02-11T11:15:31.646Z,35.20
2023-02-11T11:18:22.322Z,42.55
2023-02-11T11:21:05.240Z,37.15
2023-02-11T11:23:35.425Z,33.42
2023-02-11T11:26:11.384Z,27.90
2023-02-11T11:28:50.360Z,31.65
2023-02-11T11:31:25.000Z,36.15
2023-02-11T11:33:56.626Z,25.10
2023-02-11T11:39:03.763Z,30.95
2023-02-11T11:41:35.429Z,46.17
2023-02-11T11:46:55.879Z,23.38
2023-02-11T11:49:33.578Z,45.50
2023-02-11T11:52:20.417Z,32.53
2023-02-11T11:54:55.504Z,34.55
2023-02-11T12:02:12.556Z,32.47
2023-02-11T12:04:51.558Z,26.45
2023-02-11T12:07:46.337Z,28.73
2023-02-11T12:13:46.734Z,36.00
2023-02-11T12:16:46.400Z,31.38
2023-02-11T12:19:29.571Z,27.13
2023-02-11T12:22:13.097Z,36.67
2023-02-11T12:24:57.514Z,47.22
2023-02-11T12:28:11.538Z,39.05
2023-02-11T12:30:58.333Z,20.50
2023-02-11T12:33:46.748Z,48.47
2023-02-11T12:36:21.264Z,45.95
2023-02-11T12:39:07.975Z,44.17
2023-02-11T12:41:57.545Z,40.63
2023-02-11T12:44:43.459Z,31.58
2023-02-11T12:47:52.962Z,43.65
2023-02-11T12:50:53.741Z,32.20
2023-02-11T12:54:01.295Z,30.45
2023-02-11T12:56:51.539Z,50.13
2023-02-11T13:00:07.941Z,44.47
2023-02-11T13:03:00.633Z,45.08
2023-02-11T13:05:49.701Z,32.65
2023-02-11T13:08:40.502Z,31.40
2023-02-11T13:11:14.575Z,33.08
2023-02-11T13:14:04.935Z,56.42
2023-02-11T13:16:51.052Z,44.90
2023-02-11T13:19:31.076Z,43.35
2023-02-11T13:22:14.976Z,37.90
2023-02-11T13:24:57.242Z,41.28
2023-02-11T13:27:42.324Z,37.83
2023-02-11T13:30:30.347Z,38.80
2023-02-11T13:32:58.558Z,49.97
2023-02-11T13:35:32.675Z,45.95
2023-02-11T13:38:17.663Z,66.40
2023-02-11T13:40:46.661Z,76.72
2023-02-11T13:43:27.349Z,56.83
2023-02-11T13:46:01.570Z,69.22
2023-02-11T13:48:37.113Z,50.85
2023-02-11T13:51:11.222Z,72.68
2023-02-11T13:53:58.384Z,62.10
2023-02-11T13:56:35.508Z,45.97
2023-02-11T13:59:27.874Z,47.70
2023-02-11T14:02:30.634Z,92.13
2023-02-11T14:05:05.150Z,43.50
2023-02-11T14:07:34.579Z,53.55
2023-02-11T14:10:02.863Z,34.60
2023-02-11T14:16:38.037Z,88.90
2023-02-11T14:19:06.936Z,39.13
2023-02-11T14:21:38.999Z,59.45
2023-02-11T14:24:07.226Z,63.35
2023-02-11T14:26:53.209Z,39.42
2023-02-11T14:29:26.997Z,40.15
2023-02-11T14:32:39.697Z,39.08
2023-02-11T14:35:40.019Z,38.50
2023-02-11T14:38:45.201Z,44.90
2023-02-11T14:41:26.863Z,37.67
2023-02-11T14:44:02.392Z,41.67
2023-02-11T14:46:30.923Z,32.50
2023-02-11T14:49:01.784Z,43.60
2023-02-11T14:51:35.408Z,62.63
2023-02-11T14:54:20.102Z,44.03
2023-02-11T14:57:05.403Z,43.03
2023-02-11T14:59:33.883Z,63.50
2023-02-11T15:02:02.386Z,43.58
2023-02-11T15:04:33.114Z,27.65
2023-02-11T15:08:47.584Z,50.17
2023-02-11T15:11:20.608Z,38.85
2023-02-11T15:13:49.981Z,37.60
2023-02-11T15:16:26.689Z,47.92
2023-02-11T15:19:03.056Z,50.67
2023-02-11T15:21:35.076Z,42.15
2023-02-11T15:24:27.903Z,45.55
2023-02-11T15:27:13.181Z,45.55
2023-02-11T15:29:44.941Z,30.33
2023-02-11T15:32:18.665Z,26.88
2023-02-11T15:34:48.684Z,45.58
2023-02-11T15:37:28.695Z,65.93
2023-02-11T15:40:09.067Z,40.28
2023-02-11T15:42:51.706Z,39.13
2023-02-11T15:45:20.850Z,34.35
2023-02-11T15:47:55.002Z,38.55
2023-02-11T15:50:31.525Z,39.10
2023-02-11T15:53:04.009Z,56.90
2023-02-11T15:55:32.340Z,44.03
2023-02-11T15:58:02.274Z,47.92
2023-02-11T16:00:50.509Z,60.85
2023-02-11T16:03:27.549Z,59.25
2023-02-11T16:05:58.291Z,37.90
2023-02-11T16:08:29.840Z,36.20
2023-02-11T16:11:04.110Z,25.15
2023-02-11T16:13:33.010Z,27.40
2023-02-11T16:16:17.569Z,20.38
2023-02-11T16:19:03.427Z,40.55
2023-02-11T16:21:44.549Z,32.60
2023-02-11T16:24:26.431Z,35.90
2023-02-11T16:29:32.430Z,43.20
2023-02-11T16:32:10.655Z,39.58
2023-02-11T16:34:38.912Z,29.05
2023-02-11T16:37:07.212Z,27.55
2023-02-11T16:39:35.594Z,30.90
2023-02-11T16:54:53.844Z,38.05
2023-02-11T16:57:24.340Z,52.65
2023-02-11T16:59:53.054Z,38.13
2023-02-11T17:02:27.988Z,27.90
2023-02-11T17:04:59.411Z,37.42
2023-02-11T17:07:28.562Z,27.20
2023-02-11T17:09:57.283Z,37.20
2023-02-11T17:12:25.622Z,23.42
2023-02-11T17:14:54.560Z,41.30
2023-02-11T17:17:22.870Z,36.35
2023-02-11T17:19:50.983Z,33.88
2023-02-11T17:22:19.318Z,27.27
2023-02-11T17:24:47.612Z,38.17
2023-02-11T17:27:15.751Z,35.45
2023-02-11T17:29:44.246Z,49.45
2023-02-11T17:32:12.400Z,31.40
2023-02-11T17:34:40.750Z,37.25
2023-02-11T17:37:09.087Z,57.92
2023-02-11T17:39:38.321Z,47.80
2023-02-11T17:42:07.809Z,43.47
2023-02-11T17:44:35.906Z,41.60
2023-02-11T17:47:04.478Z,51.20
2023-02-11T17:49:32.699Z,40.67
2023-02-11T17:52:00.993Z,38.88
2023-02-11T17:54:29.222Z,38.58
2023-02-11T17:56:58.586Z,41.17
2023-02-11T17:59:26.951Z,48.75
2023-02-11T18:01:55.138Z,38.75
2023-02-11T18:04:23.747Z,50.88
2023-02-11T18:06:52.087Z,40.28
2023-02-11T18:09:20.448Z,38.58
2023-02-11T18:11:48.660Z,46.35
2023-02-11T18:14:16.934Z,57.60
2023-02-11T18:16:45.273Z,39.22
2023-02-11T18:19:13.872Z,37.40
2023-02-11T18:21:42.290Z,34.95
2023-02-11T18:24:11.345Z,43.65
2023-02-11T18:26:39.497Z,43.55
2023-02-11T18:29:08.211Z,36.17
2023-02-11T18:31:36.735Z,45.75
2023-02-11T18:34:09.173Z,54.75
2023-02-11T18:36:37.518Z,46.92
2023-02-11T18:39:05.993Z,40.60
2023-02-11T18:41:34.583Z,36.03
2023-02-11T18:44:03.030Z,55.80
2023-02-11T18:46:32.032Z,53.70
2023-02-11T18:49:00.550Z,72.28
2023-02-11T18:51:28.998Z,48.05
2023-02-11T18:53:57.554Z,38.75
2023-02-11T18:56:26.358Z,41.55
2023-02-11T18:58:54.801Z,57.80
2023-02-11T19:01:26.071Z,90.85
2023-02-11T19:03:56.649Z,47.65
2023-02-11T19:06:28.111Z,56.30
2023-02-11T19:09:00.040Z,62.13
2023-02-11T19:11:33.491Z,48.97
2023-02-11T19:14:05.055Z,51.80
2023-02-11T19:16:33.477Z,75.28
2023-02-11T19:19:01.744Z,40.63
2023-02-11T19:21:30.185Z,57.85
2023-02-11T19:23:58.582Z,93.35
2023-02-11T19:26:27.811Z,107.93
2023-02-11T19:28:56.732Z,66.60
2023-02-11T19:31:25.203Z,81.43
2023-02-11T19:33:53.549Z,48.97
2023-02-11T19:36:22.003Z,50.47
2023-02-11T19:38:50.219Z,51.45
2023-02-11T19:41:18.542Z,110.47
2023-02-11T19:43:46.819Z,79.13
2023-02-11T19:46:15.277Z,67.80
2023-02-11T19:48:43.472Z,65.13
2023-02-11T19:51:13.385Z,105.55
2023-02-11T19:53:42.267Z,107.50
2023-02-11T19:56:10.975Z,88.38
2023-02-11T19:58:40.633Z,52.95
2023-02-11T20:01:15.252Z,54.53
2023-02-11T20:03:43.902Z,45.45
2023-02-11T20:06:18.086Z,63.00
2023-02-11T20:08:46.400Z,54.88
2023-02-11T20:11:17.659Z,69.80
2023-02-11T20:13:46.282Z,87.45
2023-02-11T20:16:16.866Z,60.22
2023-02-11T20:18:46.418Z,63.30
2023-02-11T20:21:17.754Z,46.92
2023-02-11T20:23:47.058Z,66.85
2023-02-11T20:26:21.005Z,42.30
2023-02-11T20:28:50.443Z,105.18
2023-02-11T20:31:20.436Z,133.77
2023-02-11T20:33:49.043Z,100.70
2023-02-11T20:36:25.491Z,113.97
2023-02-11T20:38:54.865Z,79.55
2023-02-11T20:41:28.181Z,119.35
2023-02-11T20:43:58.539Z,94.40
2023-02-11T20:46:30.089Z,96.68
2023-02-11T20:48:58.540Z,93.45
2023-02-11T20:51:29.839Z,84.07
2023-02-11T20:53:59.043Z,78.63
2023-02-11T20:56:32.616Z,75.13
2023-02-11T20:59:02.253Z,80.85
2023-02-11T21:01:33.351Z,66.07
2023-02-11T21:04:04.985Z,133.95
2023-02-11T21:06:36.414Z,146.23
2023-02-11T21:09:06.311Z,139.68
2023-02-11T21:11:35.225Z,97.38
2023-02-11T21:14:03.958Z,62.13
2023-02-11T21:16:33.199Z,63.53
2023-02-11T21:19:01.674Z,58.35
2023-02-11T21:21:30.380Z,59.28
2023-02-11T21:23:58.896Z,66.10
2023-02-11T21:26:27.509Z,58.28
2023-02-11T21:28:55.706Z,61.80
2023-02-11T21:31:27.541Z,58.75
2023-02-11T21:36:24.483Z,111.88
2023-02-11T21:38:53.119Z,105.18
2023-02-11T21:41:22.892Z,98.07
2023-02-11T21:43:51.799Z,84.60
2023-02-11T21:46:21.142Z,57.20
2023-02-11T21:48:50.471Z,63.55
2023-02-11T21:51:21.538Z,67.07
2023-02-11T21:53:55.208Z,47.43
2023-02-11T21:56:23.903Z,57.15
2023-02-11T21:58:53.966Z,55.28
2023-02-11T22:01:25.838Z,104.65
2023-02-11T22:03:54.363Z,123.80
2023-02-11T22:06:26.326Z,101.13
2023-02-11T22:11:23.418Z,91.70
2023-02-11T22:13:58.684Z,94.40
2023-02-11T22:16:28.068Z,86.50
2023-02-11T22:18:58.226Z,73.50
2023-02-11T22:21:26.955Z,72.65
2023-02-11T22:23:56.364Z,61.75
2023-02-11T22:26:26.875Z,53.17
2023-02-11T22:28:55.808Z,70.40
2023-02-11T22:31:27.178Z,77.03
2023-02-11T22:33:56.106Z,74.88
2023-02-11T22:36:27.514Z,81.22
2023-02-11T22:38:56.439Z,49.50
2023-02-11T22:41:24.722Z,60.92
2023-02-11T22:43:52.995Z,70.20
2023-02-11T22:46:21.395Z,100.30
2023-02-11T22:48:49.882Z,103.10
2023-02-11T22:51:24.580Z,84.05
2023-02-11T22:53:55.866Z,74.30
2023-02-11T22:56:25.153Z,80.80
2023-02-11T22:58:53.797Z,79.32
2023-02-11T23:01:21.923Z,87.82
2023-02-11T23:03:50.216Z,91.47
2023-02-11T23:06:18.807Z,110.88
2023-02-11T23:08:47.137Z,114.25
2023-02-11T23:11:24.704Z,181.40
2023-02-11T23:13:54.047Z,189.40
2023-02-11T23:18:31.646Z,83.55
2023-02-11T23:21:10.143Z,75.65
2023-02-11T23:23:40.742Z,85.63
2023-02-11T23:26:13.676Z,86.88
2023-02-11T23:28:42.325Z,83.88
2023-02-11T23:31:34.895Z,79.55
2023-02-11T23:34:04.089Z,71.40
2023-02-11T23:36:32.933Z,49.83
2023-02-11T23:39:01.696Z,41.47
2023-02-11T23:41:30.503Z,41.25
2023-02-11T23:43:59.291Z,45.60
2023-02-11T23:46:28.325Z,51.38
2023-02-11T23:48:57.189Z,49.38
2023-02-11T23:51:25.594Z,55.45
2023-02-11T23:53:54.048Z,60.78
2023-02-11T23:56:24.648Z,58.80
2023-02-11T23:58:54.748Z,66.97
